createdAt,value
2019-05-17T00:00:52.154Z,3.10
2019-05-17T00:01:52.132Z,2.80
2019-05-17T00:02:52.140Z,2.90
2019-05-17T00:03:52.116Z,2.90
2019-05-17T00:04:52.103Z,3.10
2019-05-17T00:05:52.089Z,2.80
2019-05-17T00:06:52.083Z,2.80
2019-05-17T00:07:52.086Z,2.90
2019-05-17T00:08:52.060Z,3.00
2019-05-17T00:09:52.051Z,2.90
2019-05-17T00:10:52.116Z,2.90
2019-05-17T00:11:52.030Z,3.00
2019-05-17T00:12:52.048Z,3.00
2019-05-17T00:13:52.013Z,2.90
2019-05-17T00:14:52.000Z,3.10
2019-05-17T00:15:51.996Z,2.70
2019-05-17T00:16:51.974Z,2.80
2019-05-17T00:17:51.980Z,3.10
2019-05-17T00:18:51.968Z,3.00
2019-05-17T00:19:52.466Z,3.20
2019-05-17T00:20:51.966Z,3.10
2019-05-17T00:21:51.917Z,3.00
2019-05-17T00:22:51.925Z,2.90
2019-05-17T00:23:51.899Z,3.40
2019-05-17T00:24:51.936Z,3.00
2019-05-17T00:25:51.884Z,3.00
2019-05-17T00:26:51.869Z,3.10
2019-05-17T00:27:51.920Z,2.70
2019-05-17T00:28:51.855Z,3.20
2019-05-17T00:29:51.836Z,3.10
2019-05-17T00:30:51.829Z,2.80
2019-05-17T00:31:51.827Z,3.10
2019-05-17T00:32:51.819Z,2.80
2019-05-17T00:33:51.825Z,2.80
2019-05-17T00:34:51.789Z,2.90
2019-05-17T00:35:51.774Z,2.80
2019-05-17T00:36:51.766Z,2.70
2019-05-17T00:37:51.758Z,2.90
2019-05-17T00:38:51.778Z,2.80
2019-05-17T00:39:51.735Z,2.80
2019-05-17T00:40:51.725Z,3.40
2019-05-17T00:41:51.711Z,3.10
2019-05-17T00:42:51.720Z,2.60
2019-05-17T00:43:51.705Z,2.70
2019-05-17T00:44:51.688Z,2.80
2019-05-17T00:45:51.679Z,3.40
2019-05-17T00:46:51.667Z,2.90
2019-05-17T00:47:51.652Z,3.00
2019-05-17T00:48:51.657Z,2.70
2019-05-17T00:49:51.629Z,2.90
2019-05-17T00:50:54.003Z,2.90
2019-05-17T00:51:51.611Z,3.00
2019-05-17T00:52:51.602Z,3.10
2019-05-17T00:53:51.613Z,2.80
2019-05-17T00:54:51.578Z,2.90
2019-05-17T00:55:51.563Z,3.20
2019-05-17T00:56:51.553Z,3.10
2019-05-17T00:57:51.550Z,3.00
2019-05-17T00:58:51.553Z,3.00
2019-05-17T00:59:51.527Z,2.80
2019-05-17T01:00:51.516Z,2.80
2019-05-17T01:01:51.509Z,2.80
2019-05-17T01:02:51.495Z,2.80
2019-05-17T01:03:51.506Z,3.40
2019-05-17T01:04:51.475Z,2.60
2019-05-17T01:05:51.464Z,3.00
2019-05-17T01:06:51.453Z,2.70
2019-05-17T01:07:51.444Z,3.10
2019-05-17T01:09:00.805Z,2.90
2019-05-17T01:09:52.425Z,2.80
2019-05-17T01:10:51.413Z,2.90
2019-05-17T01:11:51.400Z,3.10
2019-05-17T01:12:51.388Z,3.00
2019-05-17T01:13:51.397Z,2.90
2019-05-17T01:14:51.370Z,2.80
2019-05-17T01:15:51.363Z,2.90
2019-05-17T01:16:51.347Z,2.40
2019-05-17T01:17:51.336Z,2.60
2019-05-17T01:18:51.340Z,2.80
2019-05-17T01:19:51.317Z,2.80
2019-05-17T01:20:51.306Z,2.60
2019-05-17T01:21:51.297Z,2.60
2019-05-17T01:22:51.288Z,2.70
2019-05-17T01:23:51.316Z,3.00
2019-05-17T01:24:51.269Z,2.70
2019-05-17T01:25:51.255Z,2.80
2019-05-17T01:26:51.252Z,2.80
2019-05-17T01:27:51.232Z,2.50
2019-05-17T01:28:51.222Z,2.60
2019-05-17T01:29:51.227Z,2.70
2019-05-17T01:30:51.199Z,2.50
2019-05-17T01:31:51.193Z,2.80
2019-05-17T01:32:51.183Z,2.60
2019-05-17T01:33:51.173Z,2.70
2019-05-17T01:34:51.177Z,2.60
2019-05-17T01:35:51.151Z,2.40
2019-05-17T01:36:51.143Z,2.60
2019-05-17T01:37:51.123Z,2.70
2019-05-17T01:38:51.115Z,2.60
2019-05-17T01:39:51.121Z,2.60
2019-05-17T01:40:51.097Z,2.70
2019-05-17T01:41:51.089Z,2.50
2019-05-17T01:42:51.070Z,2.60
2019-05-17T01:43:51.063Z,2.80
2019-05-17T01:44:51.069Z,2.70
2019-05-17T01:45:51.039Z,2.60
2019-05-17T01:46:51.027Z,2.90
2019-05-17T01:47:51.019Z,2.40
2019-05-17T01:48:51.007Z,2.80
2019-05-17T01:49:51.008Z,2.80
2019-05-17T01:50:50.980Z,2.60
2019-05-17T01:51:50.973Z,2.50
2019-05-17T01:52:50.965Z,2.70
2019-05-17T01:53:50.953Z,2.50
2019-05-17T01:54:50.956Z,2.70
2019-05-17T01:55:50.928Z,2.60
2019-05-17T01:56:50.937Z,2.70
2019-05-17T01:57:50.913Z,2.70
2019-05-17T01:58:50.902Z,2.60
2019-05-17T01:59:50.904Z,2.70
2019-05-17T02:00:50.874Z,2.80
2019-05-17T02:01:50.865Z,2.70
2019-05-17T02:02:50.857Z,2.80
2019-05-17T02:03:50.846Z,2.70
2019-05-17T02:04:50.848Z,2.80
2019-05-17T02:05:50.829Z,2.50
2019-05-17T02:06:50.812Z,2.50
2019-05-17T02:07:50.800Z,2.80
2019-05-17T02:08:50.793Z,2.40
2019-05-17T02:09:50.793Z,2.60
2019-05-17T02:10:50.777Z,2.50
2019-05-17T02:11:50.760Z,2.80
2019-05-17T02:12:50.749Z,2.70
2019-05-17T02:13:50.740Z,2.60
2019-05-17T02:14:50.745Z,2.50
2019-05-17T02:15:50.719Z,2.80
2019-05-17T02:16:50.720Z,2.70
2019-05-17T02:17:50.706Z,2.50
2019-05-17T02:18:50.689Z,2.40
2019-05-17T02:19:50.688Z,2.60
2019-05-17T02:20:50.667Z,2.50
2019-05-17T02:21:50.665Z,2.50
2019-05-17T02:22:50.642Z,2.70
2019-05-17T02:23:50.634Z,2.60
2019-05-17T02:24:50.655Z,3.00
2019-05-17T02:25:50.618Z,2.50
2019-05-17T02:26:50.605Z,2.60
2019-05-17T02:27:52.283Z,2.60
2019-05-17T02:28:52.030Z,2.50
2019-05-17T02:29:51.987Z,2.50
2019-05-17T02:30:53.028Z,2.70
2019-05-17T02:31:52.652Z,2.50
2019-05-17T02:32:53.830Z,2.40
2019-05-17T02:33:53.366Z,2.40
2019-05-17T02:34:52.945Z,2.60
2019-05-17T02:35:53.430Z,2.50
2019-05-17T02:36:53.213Z,2.60
2019-05-17T02:37:53.348Z,2.60
2019-05-17T02:38:53.185Z,2.40
2019-05-17T02:40:01.043Z,2.40
2019-05-17T02:40:53.561Z,2.50
2019-05-17T02:41:53.215Z,2.30
2019-05-17T02:42:53.304Z,2.30
2019-05-17T02:43:53.330Z,2.40
2019-05-17T02:44:53.114Z,2.40
2019-05-17T02:45:52.791Z,2.60
2019-05-17T02:46:53.515Z,2.80
2019-05-17T02:47:53.484Z,2.50
2019-05-17T02:48:53.585Z,2.60
2019-05-17T02:49:52.505Z,2.50
2019-05-17T02:50:53.278Z,2.60
2019-05-17T02:51:52.786Z,2.60
2019-05-17T02:52:52.767Z,2.50
2019-05-17T02:53:52.644Z,2.40
2019-05-17T02:54:52.641Z,2.50
2019-05-17T02:55:53.702Z,2.50
2019-05-17T02:56:53.673Z,2.50
2019-05-17T02:57:52.795Z,2.40
2019-05-17T02:58:53.207Z,2.50
2019-05-17T02:59:52.590Z,2.40
2019-05-17T03:00:53.246Z,2.50
2019-05-17T03:01:52.746Z,2.60
2019-05-17T03:02:53.393Z,2.70
2019-05-17T03:03:52.883Z,2.70
2019-05-17T03:04:52.609Z,2.50
2019-05-17T03:05:53.310Z,2.40
2019-05-17T03:06:53.150Z,2.60
2019-05-17T03:07:52.812Z,2.30
2019-05-17T03:08:52.469Z,2.40
2019-05-17T03:09:53.213Z,2.50
2019-05-17T03:10:53.167Z,2.40
2019-05-17T03:11:52.915Z,2.50
2019-05-17T03:12:52.961Z,2.20
2019-05-17T03:13:52.607Z,2.20
2019-05-17T03:14:52.865Z,2.20
2019-05-17T03:15:52.793Z,2.30
2019-05-17T03:16:53.411Z,2.30
2019-05-17T03:17:53.430Z,2.40
2019-05-17T03:18:52.945Z,2.60
2019-05-17T03:19:52.885Z,2.40
2019-05-17T03:20:52.501Z,2.60
2019-05-17T03:21:53.313Z,2.10
2019-05-17T03:22:52.600Z,2.40
2019-05-17T03:23:50.004Z,2.70
2019-05-17T03:24:53.056Z,2.50
2019-05-17T03:25:52.408Z,2.40
2019-05-17T03:26:52.618Z,2.40
2019-05-17T03:27:53.343Z,2.30
2019-05-17T03:28:53.576Z,2.10
2019-05-17T03:29:53.519Z,2.20
2019-05-17T03:30:55.612Z,2.50
2019-05-17T03:31:59.769Z,2.40
2019-05-17T03:32:56.118Z,2.70
2019-05-17T03:33:55.684Z,2.40
2019-05-17T03:34:56.101Z,2.40
2019-05-17T03:35:56.031Z,2.40
2019-05-17T03:36:56.188Z,2.20
2019-05-17T03:37:53.289Z,2.50
2019-05-17T03:38:49.840Z,2.50
2019-05-17T03:39:53.397Z,2.60
2019-05-17T03:41:09.464Z,2.20
2019-05-17T03:41:53.502Z,2.50
2019-05-17T03:42:49.807Z,2.40
2019-05-17T03:43:53.035Z,2.60
2019-05-17T03:44:52.911Z,2.60
2019-05-17T03:45:53.145Z,2.40
2019-05-17T03:46:52.954Z,2.10
2019-05-17T03:47:52.981Z,2.70
2019-05-17T03:48:52.924Z,2.40
2019-05-17T03:49:52.888Z,2.30
2019-05-17T03:50:52.862Z,2.40
2019-05-17T03:51:52.947Z,2.50
2019-05-17T03:52:53.265Z,2.30
2019-05-17T03:53:52.928Z,2.60
2019-05-17T03:54:52.829Z,2.60
2019-05-17T03:55:49.669Z,2.20
2019-05-17T03:56:52.752Z,2.10
2019-05-17T03:57:52.979Z,2.60
2019-05-17T03:58:52.840Z,2.50
2019-05-17T03:59:52.304Z,2.40
2019-05-17T04:00:49.603Z,2.30
2019-05-17T04:01:52.534Z,2.60
2019-05-17T04:02:49.580Z,2.40
2019-05-17T04:03:49.569Z,2.60
2019-05-17T04:04:52.693Z,2.10
2019-05-17T04:05:52.669Z,2.20
2019-05-17T04:06:52.420Z,2.40
2019-05-17T04:07:49.545Z,2.30
2019-05-17T04:08:52.631Z,2.40
2019-05-17T04:09:52.964Z,2.50
2019-05-17T04:10:52.712Z,2.40
2019-05-17T04:11:49.496Z,2.30
2019-05-17T04:12:52.711Z,2.50
2019-05-17T04:13:49.460Z,2.70
2019-05-17T04:14:49.450Z,2.50
2019-05-17T04:15:52.763Z,2.30
2019-05-17T04:16:49.439Z,2.60
2019-05-17T04:17:52.692Z,2.40
2019-05-17T04:18:49.404Z,2.60
2019-05-17T04:19:49.418Z,2.70
2019-05-17T04:20:52.541Z,2.60
2019-05-17T04:21:49.391Z,2.70
2019-05-17T04:22:52.536Z,2.80
2019-05-17T04:23:49.348Z,2.70
2019-05-17T04:24:52.317Z,3.00
2019-05-17T04:25:52.394Z,2.90
2019-05-17T04:26:52.035Z,2.40
2019-05-17T04:27:49.320Z,2.40
2019-05-17T04:28:49.308Z,2.50
2019-05-17T04:29:49.290Z,2.70
2019-05-17T04:30:52.542Z,2.60
2019-05-17T04:31:49.273Z,2.70
2019-05-17T04:32:52.419Z,2.60
2019-05-17T04:33:49.245Z,2.80
2019-05-17T04:34:52.395Z,3.10
2019-05-17T04:35:49.228Z,2.90
2019-05-17T04:36:52.091Z,3.20
2019-05-17T04:37:49.228Z,2.90
2019-05-17T04:38:52.382Z,3.00
2019-05-17T04:39:52.286Z,3.20
2019-05-17T04:40:49.177Z,3.30
2019-05-17T04:41:51.095Z,3.20
2019-05-17T04:42:52.687Z,3.30
2019-05-17T04:43:49.141Z,3.50
2019-05-17T04:44:52.446Z,3.50
2019-05-17T04:45:49.120Z,3.50
2019-05-17T04:46:49.115Z,3.60
2019-05-17T04:47:49.118Z,3.90
2019-05-17T04:48:49.089Z,3.60
2019-05-17T04:49:49.083Z,3.40
2019-05-17T04:50:49.076Z,3.80
2019-05-17T04:51:52.385Z,3.80
2019-05-17T04:52:49.059Z,4.20
2019-05-17T04:53:52.704Z,3.80
2019-05-17T04:54:49.040Z,4.20
2019-05-17T04:55:49.017Z,4.60
2019-05-17T04:56:49.006Z,4.50
2019-05-17T04:57:49.009Z,4.10
2019-05-17T04:58:50.404Z,5.10
2019-05-17T04:59:48.973Z,4.50
2019-05-17T05:00:48.962Z,4.70
2019-05-17T05:01:48.949Z,4.60
2019-05-17T05:02:48.968Z,4.90
2019-05-17T05:03:52.266Z,4.90
2019-05-17T05:04:48.921Z,4.30
2019-05-17T05:05:48.931Z,5.30
2019-05-17T05:06:48.896Z,5.10
2019-05-17T05:07:48.902Z,4.50
2019-05-17T05:08:48.898Z,5.30
2019-05-17T05:09:48.878Z,5.10
2019-05-17T05:10:48.865Z,4.80
2019-05-17T05:11:59.633Z,5.10
2019-05-17T05:12:52.501Z,4.80
2019-05-17T05:13:48.826Z,4.80
2019-05-17T05:14:48.819Z,4.80
2019-05-17T05:15:48.804Z,5.10
2019-05-17T05:16:48.805Z,4.40
2019-05-17T05:17:48.800Z,4.90
2019-05-17T05:18:48.769Z,4.90
2019-05-17T05:19:48.768Z,5.00
2019-05-17T05:20:48.754Z,5.00
2019-05-17T05:21:48.738Z,5.50
2019-05-17T05:22:48.756Z,4.90
2019-05-17T05:23:48.726Z,4.50
2019-05-17T05:24:48.713Z,4.60
2019-05-17T05:25:48.697Z,4.70
2019-05-17T05:26:48.685Z,4.40
2019-05-17T05:27:48.690Z,4.40
2019-05-17T05:28:49.761Z,4.30
2019-05-17T05:29:48.655Z,4.50
2019-05-17T05:30:48.647Z,4.40
2019-05-17T05:31:48.634Z,4.70
2019-05-17T05:32:48.625Z,4.30
2019-05-17T05:33:48.627Z,4.10
2019-05-17T05:34:48.601Z,4.20
2019-05-17T05:35:48.591Z,4.00
2019-05-17T05:36:48.585Z,4.50
2019-05-17T05:37:48.571Z,4.00
2019-05-17T05:38:48.572Z,4.30
2019-05-17T05:39:48.547Z,4.40
2019-05-17T05:40:48.539Z,4.00
2019-05-17T05:41:48.530Z,4.80
2019-05-17T05:42:48.520Z,4.80
2019-05-17T05:43:48.523Z,4.60
2019-05-17T05:44:48.491Z,4.80
2019-05-17T05:45:48.489Z,5.10
2019-05-17T05:46:48.479Z,4.70
2019-05-17T05:47:48.462Z,5.00
2019-05-17T05:48:48.479Z,4.40
2019-05-17T05:49:48.446Z,4.50
2019-05-17T05:50:48.436Z,4.20
2019-05-17T05:51:48.478Z,4.50
2019-05-17T05:52:48.416Z,4.50
2019-05-17T05:53:48.424Z,4.70
2019-05-17T05:54:48.394Z,4.40
2019-05-17T05:55:48.384Z,4.70
2019-05-17T05:56:48.369Z,4.40
2019-05-17T05:57:48.372Z,3.90
2019-05-17T05:58:48.362Z,4.40
2019-05-17T05:59:48.338Z,4.30
2019-05-17T06:00:48.331Z,4.40
2019-05-17T06:01:48.319Z,4.60
2019-05-17T06:02:48.307Z,4.60
2019-05-17T06:03:48.322Z,4.90
2019-05-17T06:04:48.301Z,5.40
2019-05-17T06:05:48.276Z,5.50
2019-05-17T06:06:48.264Z,5.40
2019-05-17T06:07:48.255Z,5.20
2019-05-17T06:08:48.245Z,5.40
2019-05-17T06:09:48.243Z,5.30
2019-05-17T06:10:48.236Z,5.00
2019-05-17T06:11:48.210Z,4.80
2019-05-17T06:12:48.201Z,4.90
2019-05-17T06:13:48.186Z,5.40
2019-05-17T06:14:48.201Z,4.70
2019-05-17T06:15:48.165Z,4.70
2019-05-17T06:16:48.163Z,4.70
2019-05-17T06:17:48.147Z,4.80
2019-05-17T06:18:48.134Z,4.30
2019-05-17T06:19:48.138Z,5.00
2019-05-17T06:20:48.113Z,5.10
2019-05-17T06:21:48.102Z,5.30
2019-05-17T06:22:48.096Z,5.20
2019-05-17T06:23:48.081Z,5.50
2019-05-17T06:24:48.086Z,5.10
2019-05-17T06:25:48.062Z,5.00
2019-05-17T06:26:48.045Z,4.80
2019-05-17T06:27:48.038Z,4.50
2019-05-17T06:28:48.034Z,4.40
2019-05-17T06:29:48.037Z,4.60
2019-05-17T06:30:48.008Z,4.20
2019-05-17T06:31:47.991Z,4.60
2019-05-17T06:32:47.992Z,4.70
2019-05-17T06:33:47.978Z,5.40
2019-05-17T06:34:47.977Z,6.10
2019-05-17T06:35:47.951Z,6.50
2019-05-17T06:36:47.940Z,6.30
2019-05-17T06:37:47.932Z,7.20
2019-05-17T06:38:47.923Z,6.80
2019-05-17T06:39:47.928Z,6.80
2019-05-17T06:40:47.901Z,6.50
2019-05-17T06:41:47.907Z,6.10
2019-05-17T06:42:47.873Z,6.50
2019-05-17T06:43:47.873Z,5.90
2019-05-17T06:44:47.868Z,6.00
2019-05-17T06:45:47.849Z,5.90
2019-05-17T06:46:47.832Z,5.70
2019-05-17T06:47:47.817Z,5.20
2019-05-17T06:48:47.820Z,5.50
2019-05-17T06:49:50.483Z,5.80
2019-05-17T06:50:47.785Z,5.80
2019-05-17T06:51:47.774Z,5.70
2019-05-17T06:52:47.765Z,5.80
2019-05-17T06:53:47.752Z,4.90
2019-05-17T06:54:47.757Z,5.40
2019-05-17T06:55:47.731Z,5.20
2019-05-17T06:56:47.723Z,5.40
2019-05-17T06:57:47.714Z,5.40
2019-05-17T06:58:47.717Z,5.30
2019-05-17T06:59:47.710Z,5.00
2019-05-17T07:00:49.704Z,4.90
2019-05-17T07:01:47.668Z,5.20
2019-05-17T07:02:49.825Z,5.00
2019-05-17T07:03:49.557Z,5.10
2019-05-17T07:04:47.633Z,5.10
2019-05-17T07:05:47.643Z,4.70
2019-05-17T07:06:49.512Z,4.90
2019-05-17T07:07:49.847Z,5.30
2019-05-17T07:08:49.503Z,4.80
2019-05-17T07:09:49.682Z,5.10
2019-05-17T07:10:50.113Z,5.30
2019-05-17T07:11:47.559Z,5.40
2019-05-17T07:12:56.042Z,5.30
2019-05-17T07:13:49.577Z,5.20
2019-05-17T07:14:47.524Z,5.30
2019-05-17T07:15:50.237Z,4.70
2019-05-17T07:16:47.505Z,5.00
2019-05-17T07:17:47.495Z,4.70
2019-05-17T07:18:49.424Z,5.00
2019-05-17T07:19:47.512Z,5.30
2019-05-17T07:20:49.986Z,5.00
2019-05-17T07:21:49.440Z,4.80
2019-05-17T07:22:47.439Z,4.80
2019-05-17T07:23:49.802Z,5.60
2019-05-17T07:24:47.430Z,5.00
2019-05-17T07:25:47.449Z,5.10
2019-05-17T07:26:49.723Z,5.10
2019-05-17T07:27:50.089Z,5.10
2019-05-17T07:28:49.680Z,5.20
2019-05-17T07:29:49.604Z,5.30
2019-05-17T07:30:47.373Z,5.00
2019-05-17T07:31:49.667Z,5.70
2019-05-17T07:32:49.621Z,4.80
2019-05-17T07:33:47.319Z,5.20
2019-05-17T07:34:47.315Z,5.40
2019-05-17T07:35:47.329Z,5.00
2019-05-17T07:36:47.294Z,5.30
2019-05-17T07:37:47.284Z,5.50
2019-05-17T07:38:47.274Z,4.80
2019-05-17T07:39:57.875Z,5.00
2019-05-17T07:40:50.144Z,5.00
2019-05-17T07:41:49.326Z,5.40
2019-05-17T07:42:47.236Z,5.10
2019-05-17T07:43:47.222Z,5.00
2019-05-17T07:44:49.541Z,5.00
2019-05-17T07:45:49.464Z,4.70
2019-05-17T07:46:51.736Z,4.70
2019-05-17T07:47:49.401Z,5.30
2019-05-17T07:48:49.615Z,5.20
2019-05-17T07:49:49.354Z,5.20
2019-05-17T07:50:47.153Z,5.10
2019-05-17T07:51:47.133Z,4.90
2019-05-17T07:52:47.119Z,5.00
2019-05-17T07:53:49.311Z,5.00
2019-05-17T07:54:47.101Z,5.00
2019-05-17T07:55:47.105Z,4.70
2019-05-17T07:56:47.084Z,4.80
2019-05-17T07:57:49.452Z,4.40
2019-05-17T07:58:49.352Z,4.40
2019-05-17T07:59:47.051Z,4.60
2019-05-17T08:00:47.074Z,4.90
2019-05-17T08:01:47.048Z,4.70
2019-05-17T08:02:47.020Z,4.70
2019-05-17T08:03:47.002Z,4.70
2019-05-17T08:04:47.036Z,4.50
2019-05-17T08:05:46.987Z,4.40
2019-05-17T08:06:46.985Z,5.10
2019-05-17T08:07:46.965Z,4.30
2019-05-17T08:08:49.913Z,5.00
2019-05-17T08:09:46.958Z,4.90
2019-05-17T08:10:46.930Z,4.30
2019-05-17T08:11:46.937Z,4.60
2019-05-17T08:12:49.652Z,4.20
2019-05-17T08:13:46.900Z,4.20
2019-05-17T08:14:46.885Z,4.30
2019-05-17T08:15:46.876Z,4.30
2019-05-17T08:16:46.884Z,4.40
2019-05-17T08:17:46.855Z,4.70
2019-05-17T08:18:46.842Z,4.50
2019-05-17T08:19:46.836Z,4.70
2019-05-17T08:20:46.828Z,4.20
2019-05-17T08:21:46.830Z,4.20
2019-05-17T08:22:46.804Z,4.80
2019-05-17T08:23:46.805Z,4.60
2019-05-17T08:24:49.227Z,5.10
2019-05-17T08:25:52.647Z,4.30
2019-05-17T08:26:50.123Z,4.30
2019-05-17T08:27:46.749Z,4.50
2019-05-17T08:28:46.750Z,4.50
2019-05-17T08:29:46.727Z,4.60
2019-05-17T08:30:46.725Z,4.80
2019-05-17T08:31:46.727Z,4.20
2019-05-17T08:32:46.724Z,4.60
2019-05-17T08:33:46.712Z,4.30
2019-05-17T08:34:49.503Z,4.70
2019-05-17T08:35:49.471Z,4.50
2019-05-17T08:36:46.669Z,4.10
2019-05-17T08:37:46.648Z,4.40
2019-05-17T08:38:46.633Z,4.90
2019-05-17T08:39:46.639Z,4.80
2019-05-17T08:40:46.617Z,4.70
2019-05-17T08:41:46.623Z,4.40
2019-05-17T08:42:46.592Z,4.40
2019-05-17T08:43:47.252Z,4.20
2019-05-17T08:44:46.579Z,4.50
2019-05-17T08:45:46.559Z,4.40
2019-05-17T08:46:46.569Z,4.30
2019-05-17T08:47:46.541Z,4.10
2019-05-17T08:48:46.529Z,4.50
2019-05-17T08:49:46.520Z,4.30
2019-05-17T08:50:46.506Z,4.20
2019-05-17T08:51:46.541Z,4.40
2019-05-17T08:52:46.488Z,4.70
2019-05-17T08:53:46.478Z,4.50
2019-05-17T08:54:46.465Z,4.80
2019-05-17T08:55:46.456Z,4.10
2019-05-17T08:56:46.470Z,4.30
2019-05-17T08:57:46.436Z,4.10
2019-05-17T08:58:46.448Z,4.30
2019-05-17T08:59:46.417Z,4.30
2019-05-17T09:00:46.405Z,4.20
2019-05-17T09:01:46.407Z,4.30
2019-05-17T09:02:46.385Z,4.40
2019-05-17T09:03:46.369Z,4.50
2019-05-17T09:04:46.363Z,4.10
2019-05-17T09:05:46.358Z,4.30
2019-05-17T09:06:46.362Z,4.40
2019-05-17T09:07:46.334Z,4.00
2019-05-17T09:08:46.318Z,4.30
2019-05-17T09:09:46.335Z,4.60
2019-05-17T09:10:46.303Z,4.30
2019-05-17T09:11:46.287Z,4.60
2019-05-17T09:12:46.291Z,4.60
2019-05-17T09:13:57.335Z,4.40
2019-05-17T09:14:49.474Z,4.00
2019-05-17T09:15:46.242Z,4.20
2019-05-17T09:16:46.240Z,4.40
2019-05-17T09:17:46.239Z,4.20
2019-05-17T09:18:46.213Z,4.20
2019-05-17T09:19:46.202Z,4.20
2019-05-17T09:20:46.194Z,4.40
2019-05-17T09:21:46.182Z,4.50
2019-05-17T09:22:46.196Z,4.10
2019-05-17T09:23:46.162Z,4.10
2019-05-17T09:24:46.146Z,4.00
2019-05-17T09:25:46.143Z,4.20
2019-05-17T09:26:46.194Z,3.80
2019-05-17T09:27:46.139Z,4.40
2019-05-17T09:28:46.116Z,4.30
2019-05-17T09:29:46.113Z,4.00
2019-05-17T09:30:46.087Z,3.90
2019-05-17T09:31:46.079Z,4.20
2019-05-17T09:32:46.091Z,4.40
2019-05-17T09:33:46.064Z,4.40
2019-05-17T09:34:46.037Z,4.00
2019-05-17T09:35:46.130Z,3.90
2019-05-17T09:36:46.016Z,4.00
2019-05-17T09:37:46.031Z,4.10
2019-05-17T09:38:45.997Z,4.20
2019-05-17T09:39:45.993Z,4.10
2019-05-17T09:40:45.978Z,4.30
2019-05-17T09:41:45.970Z,3.90
2019-05-17T09:42:45.970Z,4.10
2019-05-17T09:43:45.953Z,4.50
2019-05-17T09:44:45.941Z,4.00
2019-05-17T09:45:45.935Z,3.90
2019-05-17T09:46:45.913Z,4.60
2019-05-17T09:47:45.919Z,4.20
2019-05-17T09:48:47.033Z,4.10
2019-05-17T09:49:45.885Z,4.20
2019-05-17T09:50:45.878Z,4.20
2019-05-17T09:51:45.861Z,4.00
2019-05-17T09:52:45.865Z,3.90
2019-05-17T09:53:45.840Z,3.90
2019-05-17T09:54:45.830Z,4.10
2019-05-17T09:55:45.823Z,4.00
2019-05-17T09:56:45.809Z,3.90
2019-05-17T09:57:45.827Z,4.00
2019-05-17T09:58:45.791Z,3.80
2019-05-17T09:59:45.778Z,4.20
2019-05-17T10:00:45.769Z,4.20
2019-05-17T10:01:45.756Z,3.90
2019-05-17T10:02:45.772Z,4.00
2019-05-17T10:03:45.758Z,4.00
2019-05-17T10:04:45.727Z,3.80
2019-05-17T10:05:45.720Z,4.00
2019-05-17T10:06:45.701Z,3.70
2019-05-17T10:07:45.700Z,3.80
2019-05-17T10:08:45.700Z,3.50
2019-05-17T10:09:45.671Z,4.20
2019-05-17T10:10:45.663Z,4.30
2019-05-17T10:11:45.655Z,3.90
2019-05-17T10:12:45.642Z,3.80
2019-05-17T10:13:45.783Z,3.80
2019-05-17T10:14:45.631Z,4.00
2019-05-17T10:15:45.604Z,4.10
2019-05-17T10:16:45.606Z,3.70
2019-05-17T10:17:45.587Z,4.00
2019-05-17T10:18:45.589Z,4.00
2019-05-17T10:19:45.566Z,3.90
2019-05-17T10:20:45.551Z,3.80
2019-05-17T10:21:45.552Z,4.20
2019-05-17T10:22:45.530Z,3.80
2019-05-17T10:23:45.538Z,4.10
2019-05-17T10:24:45.515Z,3.70
2019-05-17T10:25:45.507Z,4.20
2019-05-17T10:26:45.489Z,4.30
2019-05-17T10:27:45.491Z,3.60
2019-05-17T10:28:45.486Z,4.30
2019-05-17T10:29:45.458Z,3.90
2019-05-17T10:30:45.458Z,3.80
2019-05-17T10:31:45.440Z,4.00
2019-05-17T10:32:45.434Z,3.90
2019-05-17T10:33:45.432Z,3.70
2019-05-17T10:34:45.408Z,3.90
2019-05-17T10:35:45.406Z,3.70
2019-05-17T10:36:45.390Z,3.90
2019-05-17T10:37:45.375Z,4.00
2019-05-17T10:38:45.376Z,3.90
2019-05-17T10:39:45.357Z,3.80
2019-05-17T10:40:45.346Z,4.00
2019-05-17T10:41:45.338Z,3.70
2019-05-17T10:42:45.320Z,3.80
2019-05-17T10:43:45.324Z,3.80
2019-05-17T10:44:47.754Z,4.10
2019-05-17T10:45:45.291Z,3.80
2019-05-17T10:46:45.352Z,4.00
2019-05-17T10:47:45.268Z,3.90
2019-05-17T10:48:45.276Z,3.40
2019-05-17T10:49:45.253Z,3.90
2019-05-17T10:50:45.345Z,3.90
2019-05-17T10:51:45.233Z,3.60
2019-05-17T10:52:45.217Z,4.00
2019-05-17T10:53:45.226Z,4.30
2019-05-17T10:54:45.194Z,4.20
2019-05-17T10:55:45.199Z,3.60
2019-05-17T10:56:45.187Z,3.60
2019-05-17T10:57:45.163Z,4.20
2019-05-17T10:58:45.190Z,4.00
2019-05-17T10:59:45.144Z,3.80
2019-05-17T11:00:45.131Z,3.80
2019-05-17T11:01:45.120Z,3.70
2019-05-17T11:02:45.114Z,3.90
2019-05-17T11:03:45.116Z,3.80
2019-05-17T11:04:45.093Z,3.80
2019-05-17T11:05:45.111Z,3.70
2019-05-17T11:06:45.070Z,3.70
2019-05-17T11:07:45.075Z,3.70
2019-05-17T11:08:45.076Z,4.00
2019-05-17T11:09:45.034Z,3.80
2019-05-17T11:10:45.030Z,3.90
2019-05-17T11:11:45.028Z,4.00
2019-05-17T11:12:45.026Z,3.50
2019-05-17T11:13:45.005Z,4.20
2019-05-17T11:14:52.587Z,4.00
2019-05-17T11:15:45.966Z,3.80
2019-05-17T11:16:44.965Z,4.20
2019-05-17T11:17:44.956Z,3.70
2019-05-17T11:18:44.957Z,4.20
2019-05-17T11:19:44.932Z,4.00
2019-05-17T11:20:44.921Z,3.80
2019-05-17T11:21:44.920Z,3.60
2019-05-17T11:22:44.908Z,3.70
2019-05-17T11:23:44.910Z,3.90
2019-05-17T11:24:44.879Z,3.70
2019-05-17T11:25:46.438Z,3.70
2019-05-17T11:26:44.864Z,3.60
2019-05-17T11:27:44.843Z,3.60
2019-05-17T11:28:44.847Z,4.00
2019-05-17T11:29:44.828Z,4.00
2019-05-17T11:30:44.822Z,3.90
2019-05-17T11:31:44.807Z,4.20
2019-05-17T11:32:44.797Z,3.70
2019-05-17T11:33:44.808Z,3.60
2019-05-17T11:34:44.773Z,3.90
2019-05-17T11:35:44.765Z,4.10
2019-05-17T11:36:44.749Z,4.30
2019-05-17T11:37:44.740Z,4.00
2019-05-17T11:38:44.751Z,4.10
2019-05-17T11:39:44.719Z,3.80
2019-05-17T11:40:44.716Z,4.10
2019-05-17T11:41:44.701Z,3.90
2019-05-17T11:42:44.713Z,4.30
2019-05-17T11:43:44.764Z,4.30
2019-05-17T11:44:44.678Z,4.00
2019-05-17T11:45:44.661Z,4.00
2019-05-17T11:46:44.641Z,3.90
2019-05-17T11:47:44.645Z,4.10
2019-05-17T11:48:44.642Z,4.20
2019-05-17T11:49:44.613Z,4.60
2019-05-17T11:50:44.639Z,5.00
2019-05-17T11:51:44.594Z,9.20
2019-05-17T11:52:44.583Z,11.50
2019-05-17T11:53:44.584Z,14.00
2019-05-17T11:54:44.562Z,17.10
2019-05-17T11:55:44.556Z,21.50
2019-05-17T11:56:44.542Z,23.60
2019-05-17T11:57:44.530Z,29.70
2019-05-17T11:58:44.545Z,38.70
2019-05-17T11:59:44.505Z,50.90
2019-05-17T12:00:44.498Z,59.60
2019-05-17T12:01:44.490Z,94.30
2019-05-17T12:02:44.490Z,113.50
2019-05-17T12:03:44.468Z,122.10
2019-05-17T12:04:44.473Z,173.20
2019-05-17T12:05:44.445Z,288.30
2019-05-17T12:06:44.431Z,170.60
2019-05-17T12:07:44.427Z,82.20
2019-05-17T12:08:44.430Z,60.30
2019-05-17T12:09:44.419Z,49.30
2019-05-17T12:10:44.480Z,44.90
2019-05-17T12:11:44.380Z,35.20
2019-05-17T12:12:44.372Z,40.20
2019-05-17T12:13:44.357Z,35.70
2019-05-17T12:14:44.370Z,32.00
2019-05-17T12:15:45.710Z,27.20
2019-05-17T12:16:44.328Z,27.40
2019-05-17T12:17:44.321Z,22.30
2019-05-17T12:18:44.307Z,21.10
2019-05-17T12:19:44.311Z,20.80
2019-05-17T12:20:44.292Z,18.90
2019-05-17T12:21:44.281Z,18.00
2019-05-17T12:22:44.268Z,18.80
2019-05-17T12:23:44.281Z,16.70
2019-05-17T12:24:44.274Z,14.00
2019-05-17T12:25:44.242Z,13.80
2019-05-17T12:26:47.348Z,13.80
2019-05-17T12:27:44.297Z,12.90
2019-05-17T12:28:44.206Z,15.20
2019-05-17T12:29:44.340Z,14.00
2019-05-17T12:30:44.180Z,11.50
2019-05-17T12:31:44.171Z,11.70
2019-05-17T12:32:44.159Z,11.70
2019-05-17T12:33:44.154Z,12.80
2019-05-17T12:34:44.201Z,11.50
2019-05-17T12:35:44.125Z,10.90
2019-05-17T12:36:44.115Z,12.10
2019-05-17T12:37:44.109Z,10.90
2019-05-17T12:38:44.100Z,11.30
2019-05-17T12:39:44.115Z,9.60
2019-05-17T12:40:44.094Z,10.40
2019-05-17T12:41:44.102Z,9.70
2019-05-17T12:42:44.059Z,9.70
2019-05-17T12:43:44.044Z,8.70
2019-05-17T12:44:44.053Z,8.90
2019-05-17T12:45:58.054Z,9.30
2019-05-17T12:46:45.053Z,10.00
2019-05-17T12:47:44.005Z,8.90
2019-05-17T12:48:44.000Z,8.60
2019-05-17T12:49:43.995Z,8.40
2019-05-17T12:50:43.986Z,8.30
2019-05-17T12:51:43.960Z,8.40
2019-05-17T12:52:43.943Z,8.20
2019-05-17T12:53:43.946Z,8.20
2019-05-17T12:54:43.950Z,8.00
2019-05-17T12:55:43.921Z,8.00
2019-05-17T12:56:43.936Z,8.30
2019-05-17T12:57:43.902Z,7.90
2019-05-17T12:58:43.886Z,7.80
2019-05-17T12:59:43.887Z,8.20
2019-05-17T13:00:43.861Z,8.20
2019-05-17T13:01:43.868Z,7.70
2019-05-17T13:02:43.872Z,8.00
2019-05-17T13:03:43.832Z,7.70
2019-05-17T13:04:43.836Z,7.50
2019-05-17T13:05:43.809Z,7.60
2019-05-17T13:06:43.805Z,7.30
2019-05-17T13:07:43.813Z,7.70
2019-05-17T13:08:43.788Z,7.70
2019-05-17T13:09:43.820Z,7.10
2019-05-17T13:10:43.761Z,7.40
2019-05-17T13:11:43.752Z,7.30
2019-05-17T13:12:43.738Z,7.30
2019-05-17T13:13:43.841Z,7.90
2019-05-17T13:14:43.766Z,7.90
2019-05-17T13:15:43.702Z,7.10
2019-05-17T13:16:43.764Z,7.40